createdAt,value
2023-01-18T00:00:43.115Z,96697.25
2023-01-18T00:03:15.561Z,96690.63
2023-01-18T00:05:44.988Z,96678.03
2023-01-18T00:08:17.221Z,96670.50
2023-01-18T00:10:47.855Z,96665.47
2023-01-18T00:13:16.658Z,96681.38
2023-01-18T00:15:45.489Z,96674.66
2023-01-18T00:18:14.405Z,96672.19
2023-01-18T00:20:43.075Z,96670.59
2023-01-18T00:23:11.868Z,96676.53
2023-01-18T00:25:40.578Z,96683.22
2023-01-18T00:28:10.742Z,96680.69
2023-01-18T00:30:41.108Z,96679.00
2023-01-18T00:33:10.985Z,96669.00
2023-01-18T00:35:39.803Z,96662.31
2023-01-18T00:38:08.493Z,96657.19
2023-01-18T00:40:37.257Z,96650.44
2023-01-18T00:43:15.834Z,96646.94
2023-01-18T00:45:46.083Z,96645.19
2023-01-18T00:48:14.816Z,96628.34
2023-01-18T00:50:43.446Z,96651.06
2023-01-18T00:53:12.217Z,96633.38
2023-01-18T00:55:40.898Z,96635.03
2023-01-18T00:58:09.899Z,96633.38
2023-01-18T01:00:38.926Z,96643.41
2023-01-18T01:03:09.388Z,96649.19
2023-01-18T01:05:48.747Z,96658.38
2023-01-18T01:08:18.414Z,96670.13
2023-01-18T01:10:47.447Z,96696.09
2023-01-18T01:13:28.493Z,96707.78
2023-01-18T01:16:07.471Z,96711.94
2023-01-18T01:18:48.034Z,96715.25
2023-01-18T01:21:26.751Z,96703.56
2023-01-18T01:24:05.767Z,96716.94
2023-01-18T01:26:34.567Z,96722.81
2023-01-18T01:29:03.307Z,96735.28
2023-01-18T01:31:32.062Z,96725.19
2023-01-18T01:34:02.259Z,96730.19
2023-01-18T01:36:31.073Z,96731.00
2023-01-18T01:38:59.861Z,96738.47
2023-01-18T01:41:30.995Z,96743.53
2023-01-18T01:44:03.695Z,96741.84
2023-01-18T01:46:42.816Z,96730.03
2023-01-18T01:49:19.462Z,96723.34
2023-01-18T01:51:52.887Z,96727.50
2023-01-18T01:54:26.896Z,96736.75
2023-01-18T01:57:06.431Z,96734.25
2023-01-18T01:59:37.811Z,96728.38
2023-01-18T02:02:07.199Z,96723.28
2023-01-18T02:04:37.839Z,96719.09
2023-01-18T02:07:06.696Z,96717.41
2023-01-18T02:09:35.610Z,96714.97
2023-01-18T02:12:04.748Z,96711.47
2023-01-18T02:14:33.782Z,96691.28
2023-01-18T02:17:16.168Z,96676.16
2023-01-18T02:20:11.597Z,96666.13
2023-01-18T02:23:00.833Z,96677.94
2023-01-18T02:26:01.991Z,96662.81
2023-01-18T02:28:35.808Z,96666.19
2023-01-18T02:31:11.776Z,96684.63
2023-01-18T02:33:46.961Z,96694.66
2023-01-18T02:36:27.696Z,96708.06
2023-01-18T02:39:02.370Z,96709.72
2023-01-18T02:41:49.378Z,96724.84
2023-01-18T02:44:35.280Z,96712.25
2023-01-18T02:47:06.057Z,96708.94
2023-01-18T02:49:34.801Z,96703.91
2023-01-18T02:52:04.287Z,96703.16
2023-01-18T02:54:35.787Z,96716.50
2023-01-18T02:57:08.074Z,96728.22
2023-01-18T02:59:42.654Z,96734.88
2023-01-18T03:02:16.711Z,96731.47
2023-01-18T03:04:54.554Z,96735.69
2023-01-18T03:07:28.242Z,96739.03
2023-01-18T03:09:59.456Z,96724.72
2023-01-18T03:12:46.392Z,96713.75
2023-01-18T03:15:23.623Z,96728.91
2023-01-18T03:17:55.226Z,96753.25
2023-01-18T03:20:27.964Z,96752.44
2023-01-18T03:23:13.084Z,96760.03
2023-01-18T03:25:44.480Z,96751.59
2023-01-18T03:28:26.932Z,96743.25
2023-01-18T03:31:10.181Z,96736.47
2023-01-18T03:33:46.559Z,96739.78
2023-01-18T03:36:21.401Z,96733.91
2023-01-18T03:38:57.511Z,96741.47
2023-01-18T03:41:30.753Z,96735.63
2023-01-18T03:44:04.593Z,96734.00
2023-01-18T03:46:35.920Z,96738.25
2023-01-18T03:49:06.377Z,96733.22
2023-01-18T03:51:48.643Z,96743.25
2023-01-18T03:54:23.333Z,96749.13
2023-01-18T03:56:57.811Z,96749.94
2023-01-18T03:59:31.712Z,96741.50
2023-01-18T04:02:02.469Z,96738.16
2023-01-18T04:04:31.455Z,96739.78
2023-01-18T04:07:00.538Z,96738.94
2023-01-18T04:09:29.344Z,96748.13
2023-01-18T04:11:58.890Z,96748.06
2023-01-18T04:14:27.384Z,96758.16
2023-01-18T04:16:56.395Z,96761.47
2023-01-18T04:19:28.584Z,96753.06
2023-01-18T04:21:58.094Z,96763.13
2023-01-18T04:24:26.863Z,96748.81
2023-01-18T04:26:55.811Z,96756.44
2023-01-18T04:29:25.120Z,96773.31
2023-01-18T04:31:54.294Z,96774.97
2023-01-18T04:34:23.253Z,96773.38
2023-01-18T04:36:53.698Z,96762.53
2023-01-18T04:39:22.646Z,96756.66
2023-01-18T04:41:51.446Z,96765.88
2023-01-18T04:44:20.304Z,96768.38
2023-01-18T04:46:51.696Z,96767.50
2023-01-18T04:49:20.497Z,96767.47
2023-01-18T04:51:49.396Z,96761.53
2023-01-18T04:54:20.154Z,96767.41
2023-01-18T04:56:49.333Z,96755.69
2023-01-18T04:59:18.347Z,96747.28
2023-01-18T05:01:47.234Z,96743.06
2023-01-18T05:04:16.012Z,96748.06
2023-01-18T05:06:44.860Z,96734.66
2023-01-18T05:09:13.770Z,96740.63
2023-01-18T05:11:44.300Z,96747.34
2023-01-18T05:14:13.131Z,96754.91
2023-01-18T05:16:41.875Z,96758.28
2023-01-18T05:19:10.790Z,96776.78
2023-01-18T05:21:42.768Z,96778.41
2023-01-18T05:24:11.677Z,96790.19
2023-01-18T05:26:40.316Z,96793.59
2023-01-18T05:29:10.509Z,96797.03
2023-01-18T05:31:39.630Z,96800.38
2023-01-18T05:34:08.596Z,96803.69
2023-01-18T05:36:37.355Z,96807.84
2023-01-18T05:39:06.651Z,96809.53
2023-01-18T05:41:35.458Z,96814.56
2023-01-18T05:44:04.213Z,96820.41
2023-01-18T05:46:34.716Z,96826.34
2023-01-18T05:49:03.518Z,96824.66
2023-01-18T05:51:32.306Z,96818.78
2023-01-18T05:54:01.036Z,96827.97
2023-01-18T05:56:29.780Z,96827.09
2023-01-18T05:58:58.547Z,96832.19
2023-01-18T06:01:27.966Z,96827.16
2023-01-18T06:03:58.157Z,96837.31
2023-01-18T06:06:27.019Z,96833.09
2023-01-18T06:08:56.004Z,96841.50
2023-01-18T06:11:24.742Z,96845.75
2023-01-18T06:13:53.700Z,96849.09
2023-01-18T06:16:22.503Z,96839.84
2023-01-18T06:18:51.325Z,96835.72
2023-01-18T06:21:21.562Z,96849.13
2023-01-18T06:23:50.442Z,96844.06
2023-01-18T06:26:19.148Z,96845.69
2023-01-18T06:28:47.957Z,96832.25
2023-01-18T06:31:16.746Z,96825.47
2023-01-18T06:33:45.570Z,96846.44
2023-01-18T06:36:14.282Z,96861.56
2023-01-18T06:38:44.492Z,96874.19
2023-01-18T06:41:13.314Z,96878.50
2023-01-18T06:43:41.986Z,96876.06
2023-01-18T06:46:11.826Z,96877.00
2023-01-18T06:48:40.483Z,96865.25
2023-01-18T06:51:09.306Z,96859.34
2023-01-18T06:53:38.119Z,96857.66
2023-01-18T06:56:11.979Z,96848.41
2023-01-18T06:58:40.739Z,96838.31
2023-01-18T07:01:09.926Z,96850.09
2023-01-18T07:03:38.999Z,96861.03
2023-01-18T07:06:08.442Z,96860.16
2023-01-18T07:08:37.230Z,96864.34
2023-01-18T07:11:07.150Z,96868.50
2023-01-18T07:13:40.395Z,96889.47
2023-01-18T07:16:17.769Z,96901.38
2023-01-18T07:18:47.941Z,96903.91
2023-01-18T07:21:19.455Z,96906.47
2023-01-18T07:23:48.210Z,96909.84
2023-01-18T07:26:18.489Z,96916.56
2023-01-18T07:28:49.594Z,96928.31
2023-01-18T07:31:20.699Z,96924.94
2023-01-18T07:33:49.441Z,96937.59
2023-01-18T07:36:18.264Z,96941.91
2023-01-18T07:38:47.449Z,96940.31
2023-01-18T07:41:18.511Z,96945.34
2023-01-18T07:43:48.848Z,96955.44
2023-01-18T07:46:21.016Z,96961.31
2023-01-18T07:48:50.380Z,96957.91
2023-01-18T07:51:19.367Z,96950.34
2023-01-18T07:53:55.067Z,96960.38
2023-01-18T07:56:26.060Z,96944.38
2023-01-18T07:58:56.349Z,96950.22
2023-01-18T08:01:25.582Z,96950.13
2023-01-18T08:03:55.137Z,96947.50
2023-01-18T08:06:26.457Z,96957.59
2023-01-18T08:08:57.642Z,96968.56
2023-01-18T08:11:26.640Z,96982.88
2023-01-18T08:13:56.783Z,96972.09
2023-01-18T08:16:27.139Z,96997.16
2023-01-18T08:18:56.411Z,97002.16
2023-01-18T08:21:25.023Z,97010.53
2023-01-18T08:23:55.462Z,97013.06
2023-01-18T08:26:24.265Z,97013.84
2023-01-18T08:28:52.957Z,97028.13
2023-01-18T08:31:23.596Z,97036.56
2023-01-18T08:33:53.015Z,97051.72
2023-01-18T08:36:23.268Z,97041.78
2023-01-18T08:38:53.584Z,97065.22
2023-01-18T08:41:28.576Z,97072.81
2023-01-18T08:43:57.964Z,97076.19
2023-01-18T08:46:28.455Z,97084.56
2023-01-18T08:48:59.263Z,97078.66
2023-01-18T08:51:28.063Z,97091.25
2023-01-18T08:53:57.436Z,97082.75
2023-01-18T08:56:27.418Z,97087.69
2023-01-18T08:58:57.816Z,97095.22
2023-01-18T09:01:28.773Z,97101.84
2023-01-18T09:03:58.995Z,97106.88
2023-01-18T09:06:32.419Z,97115.25
2023-01-18T09:09:02.231Z,97102.50
2023-01-18T09:11:32.507Z,97117.59
2023-01-18T09:14:02.286Z,97129.38
2023-01-18T09:16:34.036Z,97139.44
2023-01-18T09:19:06.628Z,97133.50
2023-01-18T09:21:36.070Z,97153.66
2023-01-18T09:24:04.848Z,97165.38
2023-01-18T09:26:33.674Z,97150.25
2023-01-18T09:29:02.452Z,97171.22
2023-01-18T09:31:32.769Z,97167.88
2023-01-18T09:34:18.040Z,97171.25
2023-01-18T09:36:48.050Z,97171.34
2023-01-18T09:39:16.750Z,97191.53
2023-01-18T09:41:50.439Z,97201.63
2023-01-18T09:44:25.971Z,97196.50
2023-01-18T09:47:00.170Z,97209.09
2023-01-18T09:49:38.448Z,97220.00
2023-01-18T09:52:22.170Z,97226.69
2023-01-18T09:54:57.879Z,97232.63
2023-01-18T09:57:41.185Z,97235.16
2023-01-18T10:00:20.647Z,97240.16
2023-01-18T10:02:55.745Z,97239.31
2023-01-18T10:05:28.479Z,97241.81
2023-01-18T10:08:12.022Z,97256.91
2023-01-18T10:10:46.353Z,97244.25
2023-01-18T10:13:38.129Z,97246.69
2023-01-18T10:16:15.049Z,97253.34
2023-01-18T10:18:48.565Z,97273.50
2023-01-18T10:21:24.311Z,97273.50
2023-01-18T10:24:13.885Z,97276.88
2023-01-18T10:26:43.738Z,97281.13
2023-01-18T10:29:18.499Z,97290.34
2023-01-18T10:31:57.372Z,97286.97
2023-01-18T10:34:32.173Z,97285.31
2023-01-18T10:37:12.836Z,97293.66
2023-01-18T10:39:45.098Z,97292.00
2023-01-18T10:42:20.353Z,97295.31
2023-01-18T10:44:49.301Z,97295.31
2023-01-18T10:47:19.714Z,97295.28
2023-01-18T10:49:51.665Z,97307.84
2023-01-18T10:52:27.631Z,97303.63
2023-01-18T10:54:59.725Z,97311.94
2023-01-18T10:57:31.978Z,97311.03
2023-01-18T11:00:01.873Z,97327.00
2023-01-18T11:02:35.946Z,97338.72
2023-01-18T11:05:23.694Z,97350.56
2023-01-18T11:08:14.123Z,97351.41
2023-01-18T11:10:45.284Z,97364.00
2023-01-18T11:13:26.386Z,97375.78
2023-01-18T11:16:06.504Z,97376.63
2023-01-18T11:18:35.363Z,97384.22
2023-01-18T11:21:13.110Z,97383.50
2023-01-18T11:23:43.894Z,97394.38
2023-01-18T11:26:17.458Z,97397.75
2023-01-18T11:28:50.357Z,97417.88
2023-01-18T11:31:22.590Z,97415.44
2023-01-18T11:33:54.036Z,97422.06
2023-01-18T11:36:36.678Z,97426.22
2023-01-18T11:39:19.285Z,97427.03
2023-01-18T11:41:49.038Z,97431.25
2023-01-18T11:44:20.445Z,97437.16
2023-01-18T11:46:53.335Z,97432.97
2023-01-18T11:49:35.570Z,97432.13
2023-01-18T11:52:15.206Z,97435.47
2023-01-18T11:54:47.372Z,97433.75
2023-01-18T11:57:16.160Z,97433.75
2023-01-18T11:59:46.861Z,97439.59
2023-01-18T12:02:35.215Z,97442.94
2023-01-18T12:05:25.877Z,97452.19
2023-01-18T12:08:14.094Z,97452.16
2023-01-18T12:10:53.331Z,97456.34
2023-01-18T12:13:36.327Z,97468.19
2023-01-18T12:16:13.634Z,97478.25
2023-01-18T12:19:05.382Z,97476.56
2023-01-18T12:21:45.094Z,97483.25
2023-01-18T12:24:30.222Z,97489.94
2023-01-18T12:27:02.137Z,97501.72
2023-01-18T12:30:01.518Z,97515.22
2023-01-18T12:32:50.317Z,97520.28
2023-01-18T12:35:36.144Z,97532.94
2023-01-18T12:38:18.959Z,97540.53
2023-01-18T12:41:07.835Z,97550.63
2023-01-18T12:43:46.986Z,97542.22
2023-01-18T12:46:20.220Z,97535.56
2023-01-18T12:48:54.878Z,97562.50
2023-01-18T12:51:27.206Z,97558.28
2023-01-18T12:54:00.790Z,97572.66
2023-01-18T12:56:37.008Z,97578.63
2023-01-18T12:59:08.757Z,97589.59
2023-01-18T13:01:44.065Z,97590.50
2023-01-18T13:04:31.476Z,97606.50
2023-01-18T13:07:07.549Z,97607.31
2023-01-18T13:09:41.688Z,97626.66
2023-01-18T13:12:13.136Z,97624.09
2023-01-18T13:14:47.562Z,97628.28
2023-01-18T13:17:26.078Z,97624.84
2023-01-18T13:20:00.849Z,97626.50
2023-01-18T13:22:37.140Z,97631.47
2023-01-18T13:25:32.842Z,97635.56
2023-01-18T13:28:05.624Z,97636.38
2023-01-18T13:30:48.120Z,97638.91
2023-01-18T13:33:17.462Z,97643.03
2023-01-18T13:35:54.376Z,97637.94
2023-01-18T13:38:40.610Z,97643.75
2023-01-18T13:41:13.436Z,97648.69
2023-01-18T13:44:05.446Z,97655.41
2023-01-18T13:46:37.007Z,97659.59
2023-01-18T13:49:38.634Z,97673.97
2023-01-18T13:52:32.711Z,97679.94
2023-01-18T13:55:25.416Z,97681.69
2023-01-18T13:57:56.225Z,97693.56
2023-01-18T14:00:27.863Z,97683.50
2023-01-18T14:03:05.422Z,97700.34
2023-01-18T14:05:39.161Z,97704.59
2023-01-18T14:08:08.195Z,97716.44
2023-01-18T14:10:39.335Z,97712.28
2023-01-18T14:13:10.047Z,97720.78
2023-01-18T14:15:52.772Z,97717.50
2023-01-18T14:18:25.573Z,97715.88
2023-01-18T14:21:13.103Z,97709.28
2023-01-18T14:24:07.381Z,97708.47
2023-01-18T14:26:39.696Z,97694.22
2023-01-18T14:29:14.017Z,97689.28
2023-01-18T14:31:48.827Z,97686.03
2023-01-18T14:34:38.224Z,97682.69
2023-01-18T14:37:26.423Z,97682.81
2023-01-18T14:40:23.645Z,97683.75
2023-01-18T14:42:55.391Z,97698.94
2023-01-18T14:45:29.374Z,97706.56
2023-01-18T14:48:02.124Z,97722.59
2023-01-18T14:50:35.667Z,97748.72
2023-01-18T14:53:06.389Z,97747.00
2023-01-18T14:55:36.825Z,97753.72
2023-01-18T14:58:17.343Z,97753.78
2023-01-18T15:00:49.194Z,97760.53
2023-01-18T15:03:26.426Z,97762.19
2023-01-18T15:06:04.231Z,97760.53
2023-01-18T15:08:35.662Z,97764.78
2023-01-18T15:11:06.411Z,97765.59
2023-01-18T15:13:47.705Z,97760.66
2023-01-18T15:16:20.862Z,97771.53
2023-01-18T15:18:52.573Z,97770.72
2023-01-18T15:21:25.522Z,97777.44
2023-01-18T15:24:01.345Z,97782.50
2023-01-18T15:26:41.145Z,97774.09
2023-01-18T15:29:16.979Z,97788.47
2023-01-18T15:31:52.986Z,97792.72
2023-01-18T15:34:30.316Z,97798.59
2023-01-18T15:37:01.173Z,97811.22
2023-01-18T15:39:30.242Z,97819.66
2023-01-18T15:42:03.492Z,97830.63
2023-01-18T15:44:41.313Z,97826.44
2023-01-18T15:47:25.217Z,97832.31
2023-01-18T15:49:58.334Z,97846.63
2023-01-18T15:52:39.440Z,97851.69
2023-01-18T15:55:18.821Z,97853.38
2023-01-18T15:57:59.897Z,97851.69
2023-01-18T16:00:38.636Z,97854.19
2023-01-18T16:03:18.837Z,97843.28
2023-01-18T16:06:07.692Z,97843.28
2023-01-18T16:08:36.796Z,97848.31
2023-01-18T16:11:05.695Z,97842.44
2023-01-18T16:13:37.547Z,97848.34
2023-01-18T16:16:23.078Z,97857.59
2023-01-18T16:19:05.615Z,97867.72
2023-01-18T16:21:47.485Z,97867.75
2023-01-18T16:24:20.073Z,97871.97
2023-01-18T16:26:49.120Z,97845.13
2023-01-18T16:29:17.852Z,97873.63
2023-01-18T16:31:48.433Z,97871.94
2023-01-18T16:34:24.426Z,97873.63
2023-01-18T16:36:55.067Z,97866.88
2023-01-18T16:39:24.685Z,97876.97
2023-01-18T16:41:57.835Z,97878.66
2023-01-18T16:44:27.986Z,97882.06
2023-01-18T16:46:56.840Z,97894.63
2023-01-18T16:49:25.879Z,97896.31
2023-01-18T16:51:56.351Z,97893.75
2023-01-18T16:54:25.038Z,97890.44
2023-01-18T16:56:53.891Z,97890.41
2023-01-18T16:59:23.734Z,97888.72
2023-01-18T17:01:52.817Z,97883.72
2023-01-18T17:04:21.693Z,97885.38
2023-01-18T17:06:50.471Z,97888.75
2023-01-18T17:09:24.011Z,97892.09
2023-01-18T17:11:52.934Z,97891.28
2023-01-18T17:14:22.342Z,97903.91
2023-01-18T17:16:51.541Z,97912.28
2023-01-18T17:19:22.573Z,97922.41
2023-01-18T17:21:52.372Z,97921.56
2023-01-18T17:24:24.351Z,97924.09
2023-01-18T17:26:53.014Z,97931.66
2023-01-18T17:29:22.851Z,97932.53
2023-01-18T17:31:53.041Z,97928.34
2023-01-18T17:34:28.508Z,97944.31
2023-01-18T17:36:59.659Z,97948.53
2023-01-18T17:39:43.370Z,97956.09
2023-01-18T17:42:29.713Z,97961.13
2023-01-18T17:45:04.347Z,97940.13
2023-01-18T17:47:37.643Z,97946.84
2023-01-18T17:50:09.332Z,97951.91
2023-01-18T17:52:38.838Z,97946.84
2023-01-18T17:55:15.150Z,97959.44
2023-01-18T17:57:44.834Z,97961.13
2023-01-18T18:00:15.923Z,97958.56
2023-01-18T18:02:46.684Z,97956.91
2023-01-18T18:05:15.626Z,97959.41
2023-01-18T18:07:44.533Z,97956.06
2023-01-18T18:10:16.837Z,97962.78
2023-01-18T18:12:45.822Z,97955.19
2023-01-18T18:15:14.818Z,97948.50
2023-01-18T18:17:44.155Z,97976.22
2023-01-18T18:20:13.285Z,97988.00
2023-01-18T18:22:42.196Z,97987.16
2023-01-18T18:25:11.516Z,97974.56
2023-01-18T18:27:46.474Z,97995.53
2023-01-18T18:30:17.768Z,98005.63
2023-01-18T18:32:46.718Z,98014.91
2023-01-18T18:35:25.018Z,98024.16
2023-01-18T18:37:55.791Z,98022.50
2023-01-18T18:40:25.801Z,98017.44
2023-01-18T18:43:02.383Z,98003.16
2023-01-18T18:45:32.746Z,98028.38
2023-01-18T18:48:02.032Z,98031.72
2023-01-18T18:50:31.449Z,98040.13
2023-01-18T18:53:00.604Z,98026.69
2023-01-18T18:55:29.525Z,98024.97
2023-01-18T18:57:59.762Z,98035.06
2023-01-18T19:00:28.762Z,98031.72
2023-01-18T19:03:02.759Z,98028.38
2023-01-18T19:05:32.589Z,98031.72
2023-01-18T19:08:01.662Z,98039.28
2023-01-18T19:10:30.561Z,98033.41
2023-01-18T19:13:03.030Z,98031.72
2023-01-18T19:15:32.236Z,98030.06
2023-01-18T19:18:01.020Z,98030.06
2023-01-18T19:20:29.971Z,98040.16
2023-01-18T19:22:59.211Z,98040.16
2023-01-18T19:25:28.349Z,98043.53
2023-01-18T19:27:57.264Z,98030.06
2023-01-18T19:30:27.717Z,98026.69
2023-01-18T19:32:56.624Z,98013.22
2023-01-18T19:35:27.181Z,98009.84
2023-01-18T19:37:56.502Z,98006.50
2023-01-18T19:40:25.213Z,98008.19
2023-01-18T19:42:56.190Z,98017.44
2023-01-18T19:45:28.728Z,98025.00
2023-01-18T19:47:59.835Z,98028.38
2023-01-18T19:50:32.495Z,98029.22
2023-01-18T19:53:01.743Z,98030.91
2023-01-18T19:55:30.805Z,98038.47
2023-01-18T19:58:01.554Z,98033.44
2023-01-18T20:00:32.399Z,98043.53
2023-01-18T20:03:01.971Z,98038.50
2023-01-18T20:05:30.987Z,98041.84
2023-01-18T20:07:59.802Z,98042.69
2023-01-18T20:10:28.519Z,98045.22
2023-01-18T20:12:57.806Z,98058.66
2023-01-18T20:15:26.966Z,98069.63
2023-01-18T20:17:57.154Z,98069.63
2023-01-18T20:20:32.540Z,98063.72
2023-01-18T20:23:04.460Z,98062.03
2023-01-18T20:25:34.252Z,98063.69
2023-01-18T20:28:02.633Z,98060.34
2023-01-18T20:30:31.654Z,98069.59
2023-01-18T20:33:02.211Z,98061.16
2023-01-18T20:35:32.571Z,98065.38
2023-01-18T20:38:01.461Z,98072.94
2023-01-18T20:40:30.116Z,98075.47
2023-01-18T20:42:59.275Z,98064.53
2023-01-18T20:45:28.390Z,98068.75
2023-01-18T20:47:57.218Z,98075.47
2023-01-18T20:50:27.397Z,98072.94
2023-01-18T20:52:57.074Z,98075.50
2023-01-18T20:55:26.247Z,98081.38
2023-01-18T20:57:57.488Z,98092.31
2023-01-18T21:00:26.419Z,98083.88
2023-01-18T21:02:55.387Z,98096.50
2023-01-18T21:05:25.694Z,98104.91
2023-01-18T21:07:55.857Z,98110.00
2023-01-18T21:10:39.040Z,98105.75
2023-01-18T21:13:08.567Z,98102.41
2023-01-18T21:15:37.917Z,98099.03
2023-01-18T21:18:07.631Z,98081.34
2023-01-18T21:20:36.552Z,98082.22
2023-01-18T21:23:06.729Z,98093.13
2023-01-18T21:25:35.555Z,98093.16
2023-01-18T21:28:04.305Z,98092.28
2023-01-18T21:30:33.417Z,98099.03
2023-01-18T21:33:02.208Z,98097.34
2023-01-18T21:35:32.009Z,98109.13
2023-01-18T21:38:03.176Z,98100.72
2023-01-18T21:40:33.425Z,98109.13
2023-01-18T21:43:12.315Z,98109.13
2023-01-18T21:45:51.114Z,98109.97
2023-01-18T21:48:20.051Z,98109.13
2023-01-18T21:50:58.554Z,98119.22
2023-01-18T21:53:37.530Z,98119.22
2023-01-18T21:56:08.278Z,98111.66
2023-01-18T21:58:45.979Z,98115.03
2023-01-18T22:01:17.429Z,98117.56
2023-01-18T22:03:56.299Z,98131.00
2023-01-18T22:06:25.147Z,98123.44
2023-01-18T22:08:53.889Z,98116.72
2023-01-18T22:11:24.394Z,98119.25
2023-01-18T22:13:53.344Z,98115.88
2023-01-18T22:16:22.610Z,98125.97
2023-01-18T22:18:51.635Z,98122.59
2023-01-18T22:21:20.319Z,98132.69
2023-01-18T22:23:49.443Z,98138.59
2023-01-18T22:26:18.649Z,98138.59
2023-01-18T22:28:48.926Z,98146.16
2023-01-18T22:31:17.942Z,98138.59
2023-01-18T22:33:47.325Z,98149.53
2023-01-18T22:36:16.630Z,98149.53
2023-01-18T22:38:45.742Z,98144.47
2023-01-18T22:41:17.517Z,98143.63
2023-01-18T22:43:47.384Z,98147.00
2023-01-18T22:46:19.854Z,98146.16
2023-01-18T22:48:49.719Z,98141.94
2023-01-18T22:51:20.378Z,98139.41
2023-01-18T22:53:49.855Z,98139.41
2023-01-18T22:56:21.708Z,98146.16
2023-01-18T22:58:51.110Z,98141.94
2023-01-18T23:01:25.209Z,98140.28
2023-01-18T23:03:56.438Z,98132.69
2023-01-18T23:06:26.178Z,98141.13
2023-01-18T23:08:54.964Z,98133.56
2023-01-18T23:11:26.363Z,98136.06
2023-01-18T23:14:08.003Z,98132.69
2023-01-18T23:16:47.693Z,98119.22
2023-01-18T23:19:16.484Z,98119.22
2023-01-18T23:21:45.220Z,98125.97
2023-01-18T23:24:14.443Z,98138.59
2023-01-18T23:26:43.184Z,98138.59
2023-01-18T23:29:12.166Z,98141.13
2023-01-18T23:31:42.998Z,98147.84
2023-01-18T23:34:12.115Z,98141.97
2023-01-18T23:36:40.880Z,98134.38
2023-01-18T23:39:20.705Z,98139.41
2023-01-18T23:41:58.776Z,98125.97
2023-01-18T23:44:36.901Z,98123.44
2023-01-18T23:47:15.873Z,98116.69
2023-01-18T23:49:54.324Z,98112.50
2023-01-18T23:52:31.758Z,98114.16
2023-01-18T23:55:00.966Z,98113.34
2023-01-18T23:57:29.785Z,98103.25
2023-01-18T23:59:58.544Z,98104.09
